createdAt,value
2019-03-15T00:00:29.270Z,98855.66
2019-03-15T00:02:55.567Z,98850.50
2019-03-15T00:05:21.834Z,98847.86
2019-03-15T00:07:48.004Z,98846.40
2019-03-15T00:10:14.322Z,98836.95
2019-03-15T00:12:40.674Z,98836.94
2019-03-15T00:15:07.435Z,98841.84
2019-03-15T00:17:33.598Z,98847.03
2019-03-15T00:19:59.796Z,98848.46
2019-03-15T00:22:25.956Z,98837.84
2019-03-15T00:24:52.212Z,98837.72
2019-03-15T00:27:18.397Z,98839.25
2019-03-15T00:29:44.567Z,98838.55
2019-03-15T00:32:13.123Z,98830.27
2019-03-15T00:34:39.320Z,98838.09
2019-03-15T00:37:05.481Z,98829.92
2019-03-15T00:39:31.640Z,98837.42
2019-03-15T00:41:57.841Z,98839.44
2019-03-15T00:44:23.992Z,98831.59
2019-03-15T00:46:50.153Z,98825.45
2019-03-15T00:49:16.358Z,98829.78
2019-03-15T00:51:42.618Z,98831.06
2019-03-15T00:54:08.899Z,98827.52
2019-03-15T00:56:35.095Z,98831.72
2019-03-15T00:59:02.169Z,98825.42
2019-03-15T01:01:28.325Z,98824.78
2019-03-15T01:03:54.535Z,98824.34
2019-03-15T01:06:20.815Z,98817.23
2019-03-15T01:08:46.970Z,98819.20
2019-03-15T01:11:13.170Z,98813.38
2019-03-15T01:13:39.346Z,98813.47
2019-03-15T01:16:05.609Z,98817.20
2019-03-15T01:18:31.799Z,98806.84
2019-03-15T01:20:58.075Z,98802.84
2019-03-15T01:23:24.222Z,98804.29
2019-03-15T01:25:50.415Z,98805.52
2019-03-15T01:28:16.573Z,98803.42
2019-03-15T01:30:42.840Z,98800.13
2019-03-15T01:33:09.051Z,98801.19
2019-03-15T01:35:35.212Z,98802.76
2019-03-15T01:38:01.484Z,98803.35
2019-03-15T01:40:27.675Z,98805.46
2019-03-15T01:42:53.834Z,98804.53
2019-03-15T01:45:19.995Z,98800.78
2019-03-15T01:47:46.183Z,98796.53
2019-03-15T01:50:12.344Z,98798.28
2019-03-15T01:52:38.498Z,98804.34
2019-03-15T01:55:04.994Z,98799.44
2019-03-15T01:57:31.275Z,98791.57
2019-03-15T01:59:57.708Z,98797.30
2019-03-15T02:02:23.905Z,98798.55
2019-03-15T02:04:50.060Z,98795.02
2019-03-15T02:07:16.307Z,98802.20
2019-03-15T02:09:42.607Z,98803.61
2019-03-15T02:12:08.871Z,98807.77
2019-03-15T02:14:35.026Z,98809.04
2019-03-15T02:17:01.224Z,98805.42
2019-03-15T02:19:27.387Z,98806.84
2019-03-15T02:21:53.535Z,98801.53
2019-03-15T02:24:19.730Z,98802.56
2019-03-15T02:26:45.983Z,98797.48
2019-03-15T02:29:12.239Z,98795.41
2019-03-15T02:31:38.429Z,98791.77
2019-03-15T02:34:04.590Z,98790.00
2019-03-15T02:36:30.745Z,98785.12
2019-03-15T02:38:56.947Z,98783.44
2019-03-15T02:41:23.107Z,98788.67
2019-03-15T02:43:49.268Z,98795.02
2019-03-15T02:46:15.459Z,98783.34
2019-03-15T02:48:41.724Z,98790.34
2019-03-15T02:51:08.227Z,98780.80
2019-03-15T02:53:34.950Z,98780.52
2019-03-15T02:56:01.450Z,98787.17
2019-03-15T02:58:28.148Z,98781.72
2019-03-15T03:00:54.766Z,98781.30
2019-03-15T03:03:21.023Z,98783.66
2019-03-15T03:05:47.281Z,98788.05
2019-03-15T03:08:14.224Z,98785.27
2019-03-15T03:10:40.830Z,98798.02
2019-03-15T03:13:06.978Z,98789.89
2019-03-15T03:15:33.182Z,98794.84
2019-03-15T03:17:59.322Z,98794.06
2019-03-15T03:20:25.488Z,98796.08
2019-03-15T03:22:51.781Z,98789.20
2019-03-15T03:25:17.944Z,98796.03
2019-03-15T03:27:44.102Z,98799.21
2019-03-15T03:30:10.295Z,98790.93
2019-03-15T03:32:36.615Z,98793.83
2019-03-15T03:35:04.842Z,98796.20
2019-03-15T03:37:31.130Z,98798.60
2019-03-15T03:39:57.534Z,98800.48
2019-03-15T03:42:23.671Z,98790.89
2019-03-15T03:44:49.962Z,98800.51
2019-03-15T03:47:16.219Z,98805.19
2019-03-15T03:49:42.486Z,98805.86
2019-03-15T03:52:08.687Z,98805.05
2019-03-15T03:54:34.946Z,98805.08
2019-03-15T03:57:01.112Z,98809.20
2019-03-15T03:59:27.301Z,98806.25
2019-03-15T04:01:54.581Z,98807.59
2019-03-15T04:04:20.740Z,98807.41
2019-03-15T04:06:46.930Z,98803.72
2019-03-15T04:09:13.087Z,98810.34
2019-03-15T04:11:39.240Z,98811.69
2019-03-15T04:14:05.420Z,98812.13
2019-03-15T04:16:31.702Z,98816.84
2019-03-15T04:18:57.853Z,98821.37
2019-03-15T04:21:24.038Z,98820.52
2019-03-15T04:23:50.191Z,98821.70
2019-03-15T04:26:16.351Z,98825.73
2019-03-15T04:28:42.530Z,98821.06
2019-03-15T04:31:08.691Z,98830.64
2019-03-15T04:33:34.842Z,98826.52
2019-03-15T04:36:01.026Z,98823.73
2019-03-15T04:38:27.185Z,98826.20
2019-03-15T04:40:53.346Z,98831.75
2019-03-15T04:43:19.636Z,98835.55
2019-03-15T04:45:45.811Z,98825.94
2019-03-15T04:48:11.992Z,98831.95
2019-03-15T04:50:38.181Z,98839.12
2019-03-15T04:53:04.437Z,98840.53
2019-03-15T04:55:30.588Z,98833.66
2019-03-15T04:57:56.823Z,98840.90
2019-03-15T05:00:23.429Z,98839.58
2019-03-15T05:02:49.637Z,98836.90
2019-03-15T05:05:15.824Z,98836.89
2019-03-15T05:07:41.983Z,98841.47
2019-03-15T05:10:08.340Z,98840.52
2019-03-15T05:12:34.561Z,98844.31
2019-03-15T05:15:00.732Z,98851.10
2019-03-15T05:17:26.918Z,98846.60
2019-03-15T05:19:53.106Z,98849.87
2019-03-15T05:22:19.260Z,98845.61
2019-03-15T05:24:45.421Z,98849.25
2019-03-15T05:27:11.605Z,98843.31
2019-03-15T05:29:37.759Z,98846.62
2019-03-15T05:32:03.928Z,98845.28
2019-03-15T05:34:30.123Z,98854.20
2019-03-15T05:36:56.288Z,98859.79
2019-03-15T05:39:22.447Z,98861.61
2019-03-15T05:41:48.645Z,98864.25
2019-03-15T05:44:14.798Z,98869.72
2019-03-15T05:46:41.058Z,98871.79
2019-03-15T05:49:07.356Z,98866.25
2019-03-15T05:51:33.514Z,98867.86
2019-03-15T05:53:59.676Z,98872.09
2019-03-15T05:56:25.863Z,98870.29
2019-03-15T05:58:52.023Z,98867.74
2019-03-15T06:01:18.286Z,98873.81
2019-03-15T06:03:48.916Z,98882.06
2019-03-15T06:06:12.694Z,98879.51
2019-03-15T06:08:38.843Z,98878.95
2019-03-15T06:11:05.435Z,98877.58
2019-03-15T06:13:31.595Z,98874.14
2019-03-15T06:15:57.790Z,98876.16
2019-03-15T06:18:24.094Z,98875.48
2019-03-15T06:20:50.244Z,98881.52
2019-03-15T06:23:17.015Z,98882.00
2019-03-15T06:25:43.402Z,98874.00
2019-03-15T06:28:09.555Z,98878.83
2019-03-15T06:30:35.712Z,98882.92
2019-03-15T06:33:02.034Z,98888.67
2019-03-15T06:35:28.200Z,98895.91
2019-03-15T06:37:54.354Z,98887.25
2019-03-15T06:40:20.557Z,98889.13
2019-03-15T06:42:46.719Z,98888.30
2019-03-15T06:45:13.666Z,98887.78
2019-03-15T06:47:39.856Z,98894.71
2019-03-15T06:50:07.120Z,98899.69
2019-03-15T06:52:33.275Z,98894.62
2019-03-15T06:55:00.071Z,98899.53
2019-03-15T06:57:26.537Z,98897.91
2019-03-15T06:59:52.700Z,98906.73
2019-03-15T07:02:19.592Z,98902.23
2019-03-15T07:04:46.936Z,98902.32
2019-03-15T07:07:15.159Z,98894.81
2019-03-15T07:09:41.280Z,98897.92
2019-03-15T07:12:09.706Z,98901.09
2019-03-15T07:14:35.501Z,98905.77
2019-03-15T07:17:01.806Z,98908.36
2019-03-15T07:19:30.482Z,98909.44
2019-03-15T07:21:56.229Z,98904.72
2019-03-15T07:24:25.561Z,98908.66
2019-03-15T07:26:50.517Z,98907.31
2019-03-15T07:29:18.972Z,98907.20
2019-03-15T07:31:44.899Z,98903.38
2019-03-15T07:34:13.651Z,98913.02
2019-03-15T07:36:39.218Z,98905.49
2019-03-15T07:39:05.726Z,98908.88
2019-03-15T07:41:31.892Z,98905.36
2019-03-15T07:43:58.152Z,98912.44
2019-03-15T07:46:24.339Z,98905.05
2019-03-15T07:48:50.512Z,98904.76
2019-03-15T07:51:16.779Z,98905.29
2019-03-15T07:53:43.073Z,98906.86
2019-03-15T07:56:09.243Z,98910.43
2019-03-15T07:58:35.411Z,98910.22
2019-03-15T08:01:02.027Z,98904.45
2019-03-15T08:03:28.188Z,98912.63
2019-03-15T08:05:55.483Z,98908.38
2019-03-15T08:08:21.775Z,98909.72
2019-03-15T08:10:47.959Z,98917.44
2019-03-15T08:13:14.120Z,98917.11
2019-03-15T08:15:40.403Z,98921.41
2019-03-15T08:18:06.566Z,98921.88
2019-03-15T08:20:32.734Z,98917.27
2019-03-15T08:22:59.053Z,98913.47
2019-03-15T08:25:25.224Z,98918.12
2019-03-15T08:27:51.386Z,98916.83
2019-03-15T08:30:17.576Z,98924.19
2019-03-15T08:32:44.287Z,98919.31
2019-03-15T08:35:11.322Z,98909.76
2019-03-15T08:37:37.513Z,98907.05
2019-03-15T08:40:07.104Z,98909.56
2019-03-15T08:42:34.688Z,98905.09
2019-03-15T08:45:01.296Z,98895.95
2019-03-15T08:47:27.465Z,98890.84
2019-03-15T08:49:53.632Z,98893.84
2019-03-15T08:52:19.824Z,98893.83
2019-03-15T08:54:46.757Z,98887.23
2019-03-15T08:57:13.364Z,98883.17
2019-03-15T08:59:52.357Z,98890.27
2019-03-15T09:02:07.653Z,98887.83
2019-03-15T09:04:33.819Z,98876.42
2019-03-15T09:07:00.077Z,98893.17
2019-03-15T09:09:26.336Z,98888.66
2019-03-15T09:11:52.504Z,98891.95
2019-03-15T09:14:18.716Z,98888.33
2019-03-15T09:16:44.877Z,98885.78
2019-03-15T09:19:11.158Z,98901.51
2019-03-15T09:21:37.346Z,98885.58
2019-03-15T09:24:03.509Z,98887.86
2019-03-15T09:26:29.673Z,98881.66
2019-03-15T09:28:55.862Z,98874.99
2019-03-15T09:31:22.033Z,98870.86
2019-03-15T09:33:48.221Z,98880.59
2019-03-15T09:36:14.413Z,98874.30
2019-03-15T09:38:40.579Z,98888.80
2019-03-15T09:41:06.745Z,98883.71
2019-03-15T09:43:33.040Z,98885.76
2019-03-15T09:45:59.207Z,98878.27
2019-03-15T09:48:25.380Z,98876.03
2019-03-15T09:50:51.976Z,98875.64
2019-03-15T09:53:18.338Z,98874.19
2019-03-15T09:55:44.498Z,98871.11
2019-03-15T09:58:10.699Z,98874.87
2019-03-15T10:00:36.952Z,98883.23
2019-03-15T10:03:03.269Z,98884.77
2019-03-15T10:05:29.466Z,98879.70
2019-03-15T10:07:56.697Z,98867.55
2019-03-15T10:10:22.965Z,98874.18
2019-03-15T10:12:49.281Z,98880.55
2019-03-15T10:15:16.245Z,98869.70
2019-03-15T10:17:42.508Z,98854.46
2019-03-15T10:20:12.542Z,98854.84
2019-03-15T10:22:38.609Z,98863.22
2019-03-15T10:25:13.299Z,98833.98
2019-03-15T10:27:39.456Z,98834.93
2019-03-15T10:30:09.026Z,98840.84
2019-03-15T10:32:35.216Z,98838.59
2019-03-15T10:35:01.372Z,98844.73
2019-03-15T10:37:27.537Z,98850.86
2019-03-15T10:39:53.757Z,98848.70
2019-03-15T10:42:20.005Z,98847.09
2019-03-15T10:44:46.159Z,98842.45
2019-03-15T10:47:12.377Z,98829.25
2019-03-15T10:49:38.539Z,98832.98
2019-03-15T10:52:04.816Z,98824.24
2019-03-15T10:54:31.119Z,98815.26
2019-03-15T10:56:57.276Z,98809.76
2019-03-15T10:59:23.438Z,98823.34
2019-03-15T11:01:49.953Z,98823.17
2019-03-15T11:04:16.115Z,98823.48
2019-03-15T11:06:42.276Z,98828.20
2019-03-15T11:09:09.301Z,98838.95
2019-03-15T11:11:35.599Z,98843.05
2019-03-15T11:14:01.763Z,98840.17
2019-03-15T11:16:28.069Z,98830.86
2019-03-15T11:18:54.230Z,98824.52
2019-03-15T11:21:20.409Z,98814.02
2019-03-15T11:23:46.612Z,98807.41
2019-03-15T11:26:14.107Z,98812.82
2019-03-15T11:28:40.454Z,98801.19
2019-03-15T11:31:06.651Z,98791.96
2019-03-15T11:33:32.817Z,98789.75
2019-03-15T11:35:59.072Z,98786.17
2019-03-15T11:38:25.300Z,98789.56
2019-03-15T11:40:51.464Z,98801.34
2019-03-15T11:43:17.640Z,98793.90
2019-03-15T11:45:43.934Z,98783.22
2019-03-15T11:48:10.199Z,98776.28
2019-03-15T11:50:36.471Z,98772.31
2019-03-15T11:53:02.672Z,98766.64
2019-03-15T11:55:28.991Z,98764.89
2019-03-15T11:57:55.305Z,98776.34
2019-03-15T12:00:21.493Z,98764.47
2019-03-15T12:02:47.643Z,98768.21
2019-03-15T12:05:14.099Z,98763.19
2019-03-15T12:07:40.312Z,98750.92
2019-03-15T12:10:09.062Z,98768.63
2019-03-15T12:12:35.222Z,98770.28
2019-03-15T12:15:01.417Z,98766.94
2019-03-15T12:17:27.574Z,98781.95
2019-03-15T12:19:53.760Z,98768.65
2019-03-15T12:22:19.948Z,98787.13
2019-03-15T12:24:46.008Z,98775.57
2019-03-15T12:27:12.217Z,98786.58
2019-03-15T12:29:38.412Z,98789.60
2019-03-15T12:32:04.567Z,98777.00
2019-03-15T12:34:30.731Z,98782.16
2019-03-15T12:36:56.956Z,98779.63
2019-03-15T12:39:23.216Z,98775.52
2019-03-15T12:41:49.385Z,98774.20
2019-03-15T12:44:15.589Z,98779.16
2019-03-15T12:46:41.749Z,98767.89
2019-03-15T12:49:07.929Z,98766.02
2019-03-15T12:51:34.149Z,98764.80
2019-03-15T12:54:00.380Z,98768.27
2019-03-15T12:56:26.528Z,98770.06
2019-03-15T12:58:52.834Z,98768.17
2019-03-15T13:01:18.989Z,98766.62
2019-03-15T13:03:45.247Z,98776.16
2019-03-15T13:06:11.449Z,98776.75
2019-03-15T13:08:37.607Z,98774.01
2019-03-15T13:11:03.830Z,98783.68
2019-03-15T13:13:30.123Z,98778.80
2019-03-15T13:15:56.293Z,98768.14
2019-03-15T13:18:22.498Z,98770.79
2019-03-15T13:20:48.806Z,98769.18
2019-03-15T13:23:14.961Z,98786.55
2019-03-15T13:25:41.118Z,98777.63
2019-03-15T13:28:07.306Z,98776.13
2019-03-15T13:30:33.476Z,98786.24
2019-03-15T13:32:59.664Z,98781.42
2019-03-15T13:35:25.835Z,98774.17
2019-03-15T13:37:51.991Z,98775.06
2019-03-15T13:40:18.156Z,98778.59
2019-03-15T13:42:44.370Z,98774.23
2019-03-15T13:45:11.930Z,98773.75
2019-03-15T13:47:38.103Z,98778.23
2019-03-15T13:50:07.992Z,98789.00
2019-03-15T13:52:34.254Z,98774.37
2019-03-15T13:55:00.449Z,98770.31
2019-03-15T13:57:26.603Z,98768.59
2019-03-15T13:59:52.761Z,98767.69
2019-03-15T14:02:18.943Z,98766.32
2019-03-15T14:04:45.129Z,98766.13
2019-03-15T14:07:11.420Z,98763.38
2019-03-15T14:09:37.675Z,98760.63
2019-03-15T14:12:04.704Z,98762.38
2019-03-15T14:14:30.866Z,98762.83
2019-03-15T14:16:57.029Z,98766.22
2019-03-15T14:19:23.218Z,98765.30
2019-03-15T14:21:49.403Z,98766.63
2019-03-15T14:24:15.581Z,98770.69
2019-03-15T14:26:41.890Z,98767.45
2019-03-15T14:29:08.044Z,98769.96
2019-03-15T14:31:34.112Z,98772.11
2019-03-15T14:34:00.288Z,98769.71
2019-03-15T14:36:26.546Z,98768.27
2019-03-15T14:38:52.830Z,98768.48
2019-03-15T14:41:18.998Z,98775.16
2019-03-15T14:43:45.571Z,98770.64
2019-03-15T14:46:12.254Z,98770.24
2019-03-15T14:48:38.860Z,98770.88
2019-03-15T14:51:05.022Z,98772.91
2019-03-15T14:53:31.181Z,98778.84
2019-03-15T14:55:57.475Z,98772.34
2019-03-15T14:58:23.626Z,98783.98
2019-03-15T15:00:49.782Z,98782.94
2019-03-15T15:03:15.978Z,98787.48
2019-03-15T15:05:42.236Z,98799.88
2019-03-15T15:08:08.393Z,98797.46
2019-03-15T15:10:34.692Z,98796.33
2019-03-15T15:13:01.010Z,98803.94
2019-03-15T15:15:27.266Z,98802.73
2019-03-15T15:17:53.468Z,98798.13
2019-03-15T15:20:19.626Z,98808.39
2019-03-15T15:22:45.893Z,98805.57
2019-03-15T15:25:15.957Z,98810.19
2019-03-15T15:27:42.116Z,98811.19
2019-03-15T15:30:13.864Z,98815.68
2019-03-15T15:32:40.058Z,98820.73
2019-03-15T15:35:08.121Z,98819.55
2019-03-15T15:37:34.281Z,98828.92
2019-03-15T15:40:00.787Z,98815.63
2019-03-15T15:42:27.241Z,98816.38
2019-03-15T15:44:53.396Z,98829.88
2019-03-15T15:47:19.615Z,98832.48
2019-03-15T15:49:45.805Z,98830.29
2019-03-15T15:52:12.091Z,98838.56
2019-03-15T15:54:38.389Z,98835.82
2019-03-15T15:57:04.540Z,98836.09
2019-03-15T15:59:30.717Z,98842.87
2019-03-15T16:01:56.903Z,98843.73
2019-03-15T16:04:23.079Z,98843.45
2019-03-15T16:06:49.343Z,98844.53
2019-03-15T16:09:15.540Z,98849.73
2019-03-15T16:11:41.696Z,98851.90
2019-03-15T16:14:08.877Z,98855.04
2019-03-15T16:16:35.080Z,98862.17
2019-03-15T16:19:01.240Z,98864.78
2019-03-15T16:21:27.438Z,98871.16
2019-03-15T16:23:53.712Z,98869.64
2019-03-15T16:26:19.882Z,98869.93
2019-03-15T16:28:46.040Z,98872.16
2019-03-15T16:31:12.250Z,98881.13
2019-03-15T16:33:38.411Z,98885.41
2019-03-15T16:36:04.589Z,98888.33
2019-03-15T16:38:30.789Z,98887.44
2019-03-15T16:40:56.957Z,98894.24
2019-03-15T16:43:23.114Z,98893.41
2019-03-15T16:45:49.319Z,98901.02
2019-03-15T16:48:15.484Z,98903.15
2019-03-15T16:50:42.055Z,98901.21
2019-03-15T16:53:08.351Z,98904.78
2019-03-15T16:55:34.508Z,98908.11
2019-03-15T16:58:00.673Z,98909.90
2019-03-15T17:00:26.992Z,98908.73
2019-03-15T17:02:53.149Z,98910.48
2019-03-15T17:05:19.310Z,98909.06
2019-03-15T17:07:45.602Z,98912.42
2019-03-15T17:10:13.388Z,98921.41
2019-03-15T17:12:39.547Z,98927.87
2019-03-15T17:15:09.257Z,98925.84
2019-03-15T17:17:35.420Z,98933.53
2019-03-15T17:20:01.886Z,98936.42
2019-03-15T17:22:28.136Z,98930.27
2019-03-15T17:24:54.400Z,98932.77
2019-03-15T17:27:20.563Z,98936.82
2019-03-15T17:29:46.900Z,98938.05
2019-03-15T17:32:13.057Z,98940.69
2019-03-15T17:34:39.222Z,98946.41
2019-03-15T17:37:06.876Z,98952.77
2019-03-15T17:39:33.611Z,98953.38
2019-03-15T17:41:59.949Z,98951.13
2019-03-15T17:44:26.152Z,98956.53
2019-03-15T17:46:52.317Z,98965.27
2019-03-15T17:49:18.479Z,98961.34
2019-03-15T17:51:44.772Z,98964.44
2019-03-15T17:54:10.936Z,98971.92
2019-03-15T17:56:37.110Z,98967.42
2019-03-15T17:59:12.253Z,98971.70
2019-03-15T18:01:31.578Z,98973.48
2019-03-15T18:03:57.827Z,98980.59
2019-03-15T18:06:24.035Z,98973.17
2019-03-15T18:08:50.201Z,98979.05
2019-03-15T18:11:16.362Z,98981.44
2019-03-15T18:13:42.554Z,98981.34
2019-03-15T18:16:09.272Z,98988.70
2019-03-15T18:18:35.541Z,98986.98
2019-03-15T18:21:01.738Z,98990.90
2019-03-15T18:23:27.890Z,98999.55
2019-03-15T18:25:54.157Z,98994.31
2019-03-15T18:28:20.458Z,99008.06
2019-03-15T18:30:46.614Z,99005.55
2019-03-15T18:33:12.876Z,99005.65
2019-03-15T18:35:39.187Z,99012.45
2019-03-15T18:38:05.371Z,99010.25
2019-03-15T18:40:31.541Z,99007.94
2019-03-15T18:42:57.731Z,99012.34
2019-03-15T18:45:23.899Z,99019.63
2019-03-15T18:47:50.058Z,99017.41
2019-03-15T18:50:24.428Z,99023.91
2019-03-15T18:52:50.585Z,99025.06
2019-03-15T18:55:16.958Z,99022.74
2019-03-15T18:57:43.149Z,99029.41
2019-03-15T19:00:12.603Z,99023.24
2019-03-15T19:02:38.760Z,99027.63
2019-03-15T19:05:07.352Z,99035.32
2019-03-15T19:07:33.514Z,99032.63
2019-03-15T19:09:59.678Z,99029.45
2019-03-15T19:12:25.873Z,99029.66
2019-03-15T19:14:52.041Z,99030.31
2019-03-15T19:17:18.243Z,99026.44
2019-03-15T19:19:44.655Z,99027.41
2019-03-15T19:22:10.817Z,99026.06
2019-03-15T19:24:36.989Z,99023.70
2019-03-15T19:27:03.192Z,99028.58
2019-03-15T19:29:29.356Z,99025.19
2019-03-15T19:31:55.529Z,99025.56
2019-03-15T19:34:21.724Z,99033.69
2019-03-15T19:36:47.880Z,99030.31
2019-03-15T19:39:14.047Z,99032.80
2019-03-15T19:41:40.321Z,99029.79
2019-03-15T19:44:06.519Z,99030.41
2019-03-15T19:46:32.681Z,99032.25
2019-03-15T19:48:58.875Z,99043.19
2019-03-15T19:51:25.039Z,99039.52
2019-03-15T19:53:51.199Z,99039.02
2019-03-15T19:56:17.497Z,99043.13
2019-03-15T19:58:43.755Z,99037.33
2019-03-15T20:01:09.918Z,99051.28
2019-03-15T20:03:43.999Z,99039.39
2019-03-15T20:06:07.003Z,99044.91
2019-03-15T20:08:33.167Z,99047.42
2019-03-15T20:10:59.464Z,99050.55
2019-03-15T20:13:25.630Z,99051.95
2019-03-15T20:15:51.889Z,99044.43
2019-03-15T20:18:20.971Z,99039.98
2019-03-15T20:20:46.391Z,99041.92
2019-03-15T20:23:12.556Z,99045.07
2019-03-15T20:25:38.804Z,99048.94
2019-03-15T20:28:04.952Z,99046.42
2019-03-15T20:30:31.171Z,99050.42
2019-03-15T20:32:57.463Z,99044.17
2019-03-15T20:35:23.625Z,99046.95
2019-03-15T20:37:49.813Z,99053.80
2019-03-15T20:40:16.004Z,99047.14
2019-03-15T20:42:42.165Z,99049.50
2019-03-15T20:45:16.986Z,99055.26
2019-03-15T20:47:43.288Z,99050.87
2019-03-15T20:50:11.465Z,99050.09
2019-03-15T20:52:37.620Z,99049.09
2019-03-15T20:55:04.720Z,99057.83
2019-03-15T20:57:30.988Z,99050.39
2019-03-15T20:59:57.165Z,99048.45
2019-03-15T21:02:23.374Z,99054.67
2019-03-15T21:04:49.534Z,99054.22
2019-03-15T21:07:15.711Z,99050.25
2019-03-15T21:09:41.899Z,99047.30
2019-03-15T21:12:08.159Z,99053.02
2019-03-15T21:14:34.334Z,99056.61
2019-03-15T21:17:00.529Z,99056.80
2019-03-15T21:19:27.202Z,99055.44
2019-03-15T21:21:56.213Z,99058.30
2019-03-15T21:24:21.600Z,99060.64
2019-03-15T21:26:47.760Z,99054.93
2019-03-15T21:29:13.916Z,99054.03
2019-03-15T21:31:40.118Z,99066.79
2019-03-15T21:34:06.280Z,99061.83
2019-03-15T21:36:32.438Z,99069.67
2019-03-15T21:38:58.624Z,99076.30
2019-03-15T21:41:24.780Z,99070.09
2019-03-15T21:43:51.041Z,99069.56
2019-03-15T21:46:17.249Z,99073.66
2019-03-15T21:48:43.406Z,99064.45
2019-03-15T21:51:12.158Z,99060.34
2019-03-15T21:53:38.373Z,99061.84
2019-03-15T21:56:04.643Z,99064.92
2019-03-15T21:58:30.808Z,99061.05
2019-03-15T22:01:02.346Z,99065.06
2019-03-15T22:03:25.057Z,99065.78
2019-03-15T22:05:51.216Z,99065.69
2019-03-15T22:08:17.513Z,99069.42
2019-03-15T22:10:43.772Z,99076.83
2019-03-15T22:13:09.935Z,99071.02
2019-03-15T22:15:37.042Z,99081.02
2019-03-15T22:18:03.229Z,99083.20
2019-03-15T22:20:29.419Z,99077.86
2019-03-15T22:22:55.716Z,99074.66
2019-03-15T22:25:21.885Z,99079.64
2019-03-15T22:27:50.189Z,99077.70
2019-03-15T22:30:16.267Z,99078.59
2019-03-15T22:32:42.615Z,99075.17
2019-03-15T22:35:08.890Z,99079.86
2019-03-15T22:37:35.179Z,99075.78
2019-03-15T22:40:01.344Z,99076.05
2019-03-15T22:42:28.283Z,99092.25
2019-03-15T22:44:54.503Z,99096.17
2019-03-15T22:47:20.674Z,99094.17
2019-03-15T22:49:46.828Z,99094.93
2019-03-15T22:52:13.038Z,99096.53
2019-03-15T22:54:39.197Z,99097.22
2019-03-15T22:57:05.357Z,99089.30
2019-03-15T22:59:31.556Z,99097.80
2019-03-15T23:01:57.723Z,99105.42
2019-03-15T23:04:23.894Z,99107.05
2019-03-15T23:06:50.085Z,99109.25
2019-03-15T23:09:16.248Z,99108.33
2019-03-15T23:11:42.412Z,99113.99
2019-03-15T23:14:08.624Z,99101.23
2019-03-15T23:16:34.873Z,99117.69
2019-03-15T23:19:01.024Z,99112.58
2019-03-15T23:21:27.273Z,99108.21
2019-03-15T23:23:53.429Z,99105.62
2019-03-15T23:26:19.592Z,99103.16
2019-03-15T23:28:47.246Z,99106.53
2019-03-15T23:31:13.771Z,99099.05
2019-03-15T23:33:40.004Z,99090.66
2019-03-15T23:36:06.195Z,99097.25
2019-03-15T23:38:32.349Z,99094.23
2019-03-15T23:40:58.507Z,99087.61
2019-03-15T23:43:24.716Z,99078.24
2019-03-15T23:45:50.870Z,99078.02
2019-03-15T23:48:17.032Z,99080.02
2019-03-15T23:50:43.329Z,99081.35
2019-03-15T23:53:09.492Z,99074.90
2019-03-15T23:55:35.661Z,99077.31
2019-03-15T23:58:01.875Z,99073.72
